createdAt,value
2018-02-16T00:01:35.332Z,26.75
2018-02-16T00:03:12.513Z,28.00
2018-02-16T00:04:50.227Z,26.75
2018-02-16T00:06:27.000Z,23.75
2018-02-16T00:08:03.390Z,22.00
2018-02-16T00:09:40.259Z,27.25
2018-02-16T00:11:16.695Z,26.00
2018-02-16T00:12:54.050Z,23.25
2018-02-16T00:14:30.545Z,21.00
2018-02-16T00:16:13.754Z,27.00
2018-02-16T00:17:57.257Z,25.75
2018-02-16T00:19:35.514Z,22.25
2018-02-16T00:21:14.154Z,24.00
2018-02-16T00:22:55.176Z,22.50
2018-02-16T00:24:31.572Z,24.50
2018-02-16T00:26:07.954Z,26.00
2018-02-16T00:27:44.626Z,27.00
2018-02-16T00:29:21.568Z,24.50
2018-02-16T00:30:58.032Z,24.75
2018-02-16T00:32:34.417Z,21.25
2018-02-16T00:34:10.846Z,26.75
2018-02-16T00:35:49.499Z,22.75
2018-02-16T00:37:25.883Z,21.00
2018-02-16T00:39:02.407Z,23.00
2018-02-16T00:40:39.001Z,23.00
2018-02-16T00:42:16.354Z,21.75
2018-02-16T00:43:52.905Z,21.75
2018-02-16T00:45:29.524Z,23.75
2018-02-16T00:47:05.925Z,20.75
2018-02-16T00:48:43.849Z,19.75
2018-02-16T00:50:20.434Z,25.00
2018-02-16T00:51:57.723Z,22.50
2018-02-16T00:53:34.724Z,21.00
2018-02-16T00:55:12.162Z,18.75
2018-02-16T00:56:48.654Z,21.25
2018-02-16T00:58:26.841Z,25.50
2018-02-16T01:00:04.483Z,27.00
2018-02-16T01:01:44.362Z,27.75
2018-02-16T01:03:24.441Z,21.50
2018-02-16T01:05:04.625Z,24.25
2018-02-16T01:06:41.390Z,21.50
2018-02-16T01:08:18.287Z,22.75
2018-02-16T01:09:55.515Z,21.75
2018-02-16T01:11:31.876Z,25.25
2018-02-16T01:13:08.262Z,19.25
2018-02-16T01:14:45.886Z,24.75
2018-02-16T01:16:23.454Z,19.00
2018-02-16T01:17:59.907Z,20.00
2018-02-16T01:19:36.228Z,20.75
2018-02-16T01:21:12.645Z,19.25
2018-02-16T01:22:49.661Z,22.00
2018-02-16T01:24:26.025Z,22.50
2018-02-16T01:26:02.456Z,19.50
2018-02-16T01:27:40.251Z,20.25
2018-02-16T01:29:17.440Z,21.50
2018-02-16T01:30:54.952Z,20.75
2018-02-16T01:32:31.564Z,19.00
2018-02-16T01:34:08.199Z,20.00
2018-02-16T01:35:44.463Z,21.25
2018-02-16T01:37:20.800Z,21.50
2018-02-16T01:38:58.153Z,21.50
2018-02-16T01:40:34.930Z,23.00
2018-02-16T01:42:11.684Z,16.25
2018-02-16T01:43:48.060Z,22.50
2018-02-16T01:45:26.172Z,22.00
2018-02-16T01:47:03.736Z,20.25
2018-02-16T01:48:40.134Z,20.50
2018-02-16T01:50:16.939Z,18.00
2018-02-16T01:51:53.311Z,19.00
2018-02-16T01:53:29.659Z,20.75
2018-02-16T01:55:06.012Z,23.50
2018-02-16T01:56:42.361Z,19.50
2018-02-16T01:58:18.722Z,20.00
2018-02-16T01:59:55.427Z,22.00
2018-02-16T02:01:32.258Z,19.50
2018-02-16T02:03:09.410Z,22.25
2018-02-16T02:04:45.800Z,20.50
2018-02-16T02:06:23.278Z,18.50
2018-02-16T02:07:59.638Z,18.50
2018-02-16T02:09:36.858Z,21.50
2018-02-16T02:11:13.248Z,20.75
2018-02-16T02:12:50.021Z,18.75
2018-02-16T02:14:26.505Z,17.50
2018-02-16T02:16:03.032Z,20.25
2018-02-16T02:17:39.340Z,18.50
2018-02-16T02:19:17.019Z,20.50
2018-02-16T02:20:53.366Z,18.50
2018-02-16T02:22:29.808Z,20.50
2018-02-16T02:24:06.175Z,22.00
2018-02-16T02:25:42.629Z,22.50
2018-02-16T02:27:18.976Z,19.00
2018-02-16T02:28:55.278Z,27.00
2018-02-16T02:30:33.136Z,22.50
2018-02-16T02:32:10.672Z,21.50
2018-02-16T02:33:46.991Z,24.50
2018-02-16T02:35:23.394Z,21.50
2018-02-16T02:36:59.704Z,21.50
2018-02-16T02:38:37.198Z,19.75
2018-02-16T02:40:13.532Z,20.00
2018-02-16T02:41:51.677Z,21.25
2018-02-16T02:43:28.009Z,22.50
2018-02-16T02:45:05.538Z,19.50
2018-02-16T02:46:42.438Z,19.75
2018-02-16T02:48:18.699Z,19.75
2018-02-16T02:49:55.171Z,20.50
2018-02-16T02:51:31.852Z,17.75
2018-02-16T02:53:08.201Z,18.00
2018-02-16T02:54:45.041Z,19.50
2018-02-16T02:56:21.318Z,17.00
2018-02-16T02:57:57.634Z,20.50
2018-02-16T02:59:34.721Z,20.00
2018-02-16T03:01:11.410Z,20.00
2018-02-16T03:02:48.387Z,22.00
2018-02-16T03:04:25.119Z,19.75
2018-02-16T03:06:01.464Z,20.50
2018-02-16T03:07:37.914Z,18.00
2018-02-16T03:09:14.273Z,18.25
2018-02-16T03:10:51.001Z,19.25
2018-02-16T03:12:27.284Z,21.00
2018-02-16T03:14:04.465Z,20.50
2018-02-16T03:15:41.001Z,22.75
2018-02-16T03:17:17.905Z,19.75
2018-02-16T03:18:54.253Z,20.00
2018-02-16T03:20:30.647Z,21.75
2018-02-16T03:22:07.041Z,20.75
2018-02-16T03:23:44.518Z,21.25
2018-02-16T03:25:21.616Z,21.50
2018-02-16T03:26:58.012Z,16.75
2018-02-16T03:28:34.393Z,20.25
2018-02-16T03:30:11.129Z,20.25
2018-02-16T03:31:48.069Z,22.50
2018-02-16T03:34:57.514Z,20.00
2018-02-16T03:36:34.204Z,19.25
2018-02-16T03:38:11.765Z,21.25
2018-02-16T03:39:52.697Z,21.00
2018-02-16T03:41:29.827Z,19.75
2018-02-16T03:43:08.508Z,24.75
2018-02-16T03:44:46.794Z,20.00
2018-02-16T03:46:23.751Z,20.50
2018-02-16T03:48:00.414Z,19.00
2018-02-16T03:49:37.321Z,18.25
2018-02-16T03:51:13.645Z,18.75
2018-02-16T03:52:51.683Z,18.50
2018-02-16T03:54:28.110Z,21.50
2018-02-16T03:56:05.404Z,22.75
2018-02-16T03:57:41.766Z,32.25
2018-02-16T03:59:18.793Z,27.50
2018-02-16T04:00:55.650Z,21.75
2018-02-16T04:02:32.355Z,20.75
2018-02-16T04:04:09.432Z,21.00
2018-02-16T04:05:46.089Z,23.00
2018-02-16T04:07:22.586Z,19.00
2018-02-16T04:08:58.872Z,20.25
2018-02-16T04:10:35.386Z,20.00
2018-02-16T04:12:11.749Z,20.50
2018-02-16T04:13:48.181Z,23.00
2018-02-16T04:15:26.393Z,20.00
2018-02-16T04:17:02.646Z,22.75
2018-02-16T04:18:38.973Z,18.25
2018-02-16T04:20:15.301Z,23.50
2018-02-16T04:21:52.207Z,22.75
2018-02-16T04:23:28.575Z,18.50
2018-02-16T04:25:04.895Z,18.00
2018-02-16T04:26:41.261Z,22.75
2018-02-16T04:28:17.987Z,22.75
2018-02-16T04:29:55.118Z,21.00
2018-02-16T04:31:31.925Z,23.00
2018-02-16T04:33:09.113Z,21.75
2018-02-16T04:34:45.702Z,24.75
2018-02-16T04:36:22.020Z,19.00
2018-02-16T04:37:59.144Z,19.75
2018-02-16T04:39:35.491Z,22.00
2018-02-16T04:41:12.214Z,21.50
2018-02-16T04:42:49.107Z,21.75
2018-02-16T04:44:26.174Z,22.00
2018-02-16T04:46:02.820Z,23.25
2018-02-16T04:47:39.637Z,21.25
2018-02-16T04:49:15.929Z,21.50
2018-02-16T04:50:52.320Z,23.75
2018-02-16T04:52:28.600Z,22.50
2018-02-16T04:54:05.008Z,21.75
2018-02-16T04:55:41.765Z,23.00
2018-02-16T04:57:18.613Z,21.50
2018-02-16T04:58:55.205Z,19.00
2018-02-16T05:00:32.401Z,22.75
2018-02-16T05:02:09.104Z,21.00
2018-02-16T05:03:45.432Z,20.75
2018-02-16T05:05:22.005Z,22.25
2018-02-16T05:06:59.113Z,20.25
2018-02-16T05:08:35.421Z,21.50
2018-02-16T05:10:11.965Z,21.25
2018-02-16T05:11:49.048Z,23.75
2018-02-16T05:13:25.930Z,22.00
2018-02-16T05:15:03.400Z,19.50
2018-02-16T05:16:40.094Z,24.25
2018-02-16T05:18:16.478Z,20.75
2018-02-16T05:19:53.779Z,22.50
2018-02-16T05:21:30.042Z,25.50
2018-02-16T05:23:06.525Z,25.00
2018-02-16T05:24:43.577Z,23.75
2018-02-16T05:26:20.287Z,22.00
2018-02-16T05:27:56.649Z,20.25
2018-02-16T05:29:33.218Z,25.25
2018-02-16T05:31:09.766Z,26.25
2018-02-16T05:32:47.300Z,24.75
2018-02-16T05:34:23.616Z,21.25
2018-02-16T05:36:00.731Z,22.25
2018-02-16T05:37:37.124Z,22.00
2018-02-16T05:39:13.785Z,19.50
2018-02-16T05:40:50.147Z,22.00
2018-02-16T05:42:26.515Z,28.25
2018-02-16T05:44:02.820Z,22.75
2018-02-16T05:45:40.529Z,21.50
2018-02-16T05:47:16.839Z,23.75
2018-02-16T05:48:54.423Z,24.50
2018-02-16T05:50:30.708Z,24.00
2018-02-16T05:52:07.869Z,21.00
2018-02-16T05:53:44.153Z,23.50
2018-02-16T05:55:21.172Z,22.50
2018-02-16T05:56:57.490Z,22.00
2018-02-16T05:58:34.866Z,26.25
2018-02-16T06:00:11.176Z,23.75
2018-02-16T06:01:47.772Z,25.75
2018-02-16T06:03:24.048Z,24.75
2018-02-16T06:05:00.495Z,24.25
2018-02-16T06:06:36.901Z,21.25
2018-02-16T06:08:14.792Z,23.75
2018-02-16T06:09:51.142Z,30.25
2018-02-16T06:11:28.206Z,26.50
2018-02-16T06:13:05.349Z,28.00
2018-02-16T06:14:41.660Z,24.25
2018-02-16T06:16:19.248Z,24.75
2018-02-16T06:17:57.158Z,24.75
2018-02-16T06:19:34.205Z,28.00
2018-02-16T06:21:10.551Z,24.00
2018-02-16T06:22:47.138Z,24.50
2018-02-16T06:24:23.448Z,24.00
2018-02-16T06:25:59.813Z,25.00
2018-02-16T06:27:36.236Z,25.75
2018-02-16T06:29:12.883Z,26.25
2018-02-16T06:30:49.402Z,28.25
2018-02-16T06:32:25.794Z,29.25
2018-02-16T06:34:02.268Z,29.00
2018-02-16T06:35:38.872Z,27.75
2018-02-16T06:37:16.884Z,21.25
2018-02-16T06:38:54.039Z,25.00
2018-02-16T06:40:30.381Z,24.75
2018-02-16T06:42:07.058Z,22.25
2018-02-16T06:43:43.724Z,25.00
2018-02-16T06:45:21.049Z,25.50
2018-02-16T06:46:58.829Z,25.25
2018-02-16T06:48:36.467Z,22.50
2018-02-16T06:50:19.903Z,22.75
2018-02-16T06:51:56.368Z,20.50
2018-02-16T06:53:32.716Z,21.75
2018-02-16T06:55:10.475Z,21.75
2018-02-16T06:56:46.801Z,25.25
2018-02-16T06:58:23.087Z,28.00
2018-02-16T06:59:59.471Z,27.75
2018-02-16T07:01:36.418Z,24.25
2018-02-16T07:03:13.645Z,28.25
2018-02-16T07:04:50.196Z,30.00
2018-02-16T07:06:26.606Z,25.50
2018-02-16T07:08:04.597Z,23.00
2018-02-16T07:09:40.990Z,26.00
2018-02-16T07:11:17.283Z,24.00
2018-02-16T07:12:53.637Z,27.75
2018-02-16T07:14:30.476Z,26.00
2018-02-16T07:16:11.911Z,23.50
2018-02-16T07:17:48.312Z,25.75
2018-02-16T07:19:24.686Z,24.00
2018-02-16T07:21:02.573Z,24.50
2018-02-16T07:22:39.229Z,25.25
2018-02-16T07:24:15.624Z,25.75
2018-02-16T07:25:51.975Z,26.75
2018-02-16T07:27:28.840Z,26.25
2018-02-16T07:29:05.311Z,27.00
2018-02-16T07:30:42.201Z,27.25
2018-02-16T07:32:19.403Z,28.75
2018-02-16T07:33:57.170Z,27.25
2018-02-16T07:35:33.644Z,24.00
2018-02-16T07:37:11.405Z,24.25
2018-02-16T07:38:47.712Z,25.25
2018-02-16T07:40:25.310Z,22.00
2018-02-16T07:42:01.734Z,22.50
2018-02-16T07:43:38.170Z,24.50
2018-02-16T07:45:16.952Z,27.50
2018-02-16T07:46:54.041Z,31.50
2018-02-16T07:48:31.130Z,28.50
2018-02-16T07:50:07.437Z,29.75
2018-02-16T07:51:43.758Z,28.75
2018-02-16T07:53:20.549Z,27.00
2018-02-16T07:54:56.958Z,28.25
2018-02-16T07:56:33.317Z,27.00
2018-02-16T07:58:10.926Z,28.25
2018-02-16T07:59:48.388Z,29.00
2018-02-16T08:01:25.418Z,34.50
2018-02-16T08:03:01.820Z,28.50
2018-02-16T08:04:38.186Z,25.50
2018-02-16T08:06:14.925Z,24.75
2018-02-16T08:07:51.339Z,24.50
2018-02-16T08:09:28.569Z,22.75
2018-02-16T08:11:05.195Z,25.00
2018-02-16T08:12:42.596Z,26.00
2018-02-16T08:14:18.899Z,26.00
2018-02-16T08:15:55.575Z,31.25
2018-02-16T08:17:31.900Z,27.75
2018-02-16T08:19:08.588Z,29.75
2018-02-16T08:20:45.023Z,26.75
2018-02-16T08:22:21.560Z,23.25
2018-02-16T08:23:57.923Z,27.50
2018-02-16T08:25:35.843Z,27.00
2018-02-16T08:27:13.282Z,24.50
2018-02-16T08:28:49.580Z,22.75
2018-02-16T08:30:27.927Z,21.25
2018-02-16T08:32:05.678Z,22.25
2018-02-16T08:33:42.077Z,20.00
2018-02-16T08:35:18.397Z,29.25
2018-02-16T08:36:55.890Z,23.50
2018-02-16T08:38:32.903Z,25.50
2018-02-16T08:40:09.508Z,21.25
2018-02-16T08:41:46.837Z,26.75
2018-02-16T08:43:23.254Z,22.00
2018-02-16T08:45:01.990Z,28.75
2018-02-16T08:46:38.861Z,23.25
2018-02-16T08:48:16.239Z,18.75
2018-02-16T08:49:52.603Z,18.00
2018-02-16T08:51:29.274Z,18.25
2018-02-16T08:53:05.715Z,18.00
2018-02-16T08:54:42.180Z,15.00
2018-02-16T08:56:18.692Z,15.25
2018-02-16T08:57:55.484Z,14.50
2018-02-16T08:59:32.010Z,12.00
2018-02-16T09:01:08.523Z,12.50
2018-02-16T09:02:45.010Z,13.00
2018-02-16T09:04:22.089Z,14.50
2018-02-16T09:05:58.409Z,11.75
2018-02-16T09:07:34.819Z,14.50
2018-02-16T09:09:11.236Z,15.00
2018-02-16T09:10:48.448Z,12.50
2018-02-16T09:12:24.836Z,14.00
2018-02-16T09:14:01.817Z,15.25
2018-02-16T09:15:38.352Z,15.75
2018-02-16T09:17:15.858Z,14.25
2018-02-16T09:18:53.152Z,11.00
2018-02-16T09:20:29.436Z,12.75
2018-02-16T09:22:06.733Z,15.75
2018-02-16T09:23:43.473Z,14.75
2018-02-16T09:25:20.626Z,15.00
2018-02-16T09:26:57.031Z,15.75
2018-02-16T09:28:33.379Z,13.50
2018-02-16T09:30:10.364Z,14.00
2018-02-16T09:31:48.138Z,16.25
2018-02-16T09:33:24.504Z,17.50
2018-02-16T09:35:00.812Z,19.00
2018-02-16T09:36:39.464Z,15.50
2018-02-16T09:38:16.020Z,15.75
2018-02-16T09:39:54.178Z,14.25
2018-02-16T09:41:30.566Z,19.00
2018-02-16T09:43:07.300Z,17.00
2018-02-16T09:44:44.432Z,15.00
2018-02-16T09:46:21.343Z,17.25
2018-02-16T09:47:58.280Z,16.00
2018-02-16T09:49:35.707Z,15.00
2018-02-16T09:51:12.790Z,16.50
2018-02-16T09:52:50.232Z,19.25
2018-02-16T09:54:26.905Z,14.00
2018-02-16T09:56:03.871Z,14.00
2018-02-16T09:57:41.093Z,16.00
2018-02-16T09:59:18.056Z,18.75
2018-02-16T10:00:54.620Z,15.75
2018-02-16T10:02:31.813Z,15.00
2018-02-16T10:04:09.136Z,17.25
2018-02-16T10:05:45.682Z,17.00
2018-02-16T10:07:22.447Z,15.75
2018-02-16T10:08:59.976Z,19.25
2018-02-16T10:10:36.542Z,18.75
2018-02-16T10:12:13.852Z,15.50
2018-02-16T10:13:50.626Z,16.00
2018-02-16T10:15:31.702Z,16.25
2018-02-16T10:17:09.304Z,15.75
2018-02-16T10:18:45.982Z,14.50
2018-02-16T10:20:22.686Z,14.50
2018-02-16T10:22:00.104Z,15.50
2018-02-16T10:23:37.668Z,14.75
2018-02-16T10:25:13.995Z,16.00
2018-02-16T10:26:50.479Z,18.50
2018-02-16T10:28:28.218Z,15.00
2018-02-16T10:30:05.660Z,14.50
2018-02-16T10:31:42.340Z,16.25
2018-02-16T10:33:18.733Z,15.00
2018-02-16T10:34:55.727Z,13.00
2018-02-16T10:36:32.114Z,13.25
2018-02-16T10:38:08.430Z,14.25
2018-02-16T10:39:44.889Z,16.00
2018-02-16T10:41:21.772Z,12.00
2018-02-16T10:42:58.274Z,13.75
2018-02-16T10:44:34.609Z,15.50
2018-02-16T10:46:11.718Z,11.75
2018-02-16T10:47:48.597Z,11.50
2018-02-16T10:49:24.945Z,13.50
2018-02-16T10:51:01.392Z,11.50
2018-02-16T10:52:37.787Z,13.00
2018-02-16T10:54:14.514Z,10.00
2018-02-16T10:55:50.907Z,11.00
2018-02-16T10:57:27.237Z,12.00
2018-02-16T10:59:03.703Z,10.50
2018-02-16T11:00:44.776Z,11.75
2018-02-16T11:02:25.088Z,13.50
2018-02-16T11:04:03.414Z,10.00
2018-02-16T11:05:43.990Z,10.00
2018-02-16T11:07:25.678Z,9.00
2018-02-16T11:09:06.265Z,14.75
2018-02-16T11:10:42.735Z,9.25
2018-02-16T11:12:19.855Z,9.75
2018-02-16T11:13:56.761Z,9.00
2018-02-16T11:15:33.440Z,12.25
2018-02-16T11:17:09.885Z,9.75
2018-02-16T11:18:46.525Z,12.50
2018-02-16T11:20:23.901Z,12.50
2018-02-16T11:22:00.291Z,10.25
2018-02-16T11:25:06.091Z,11.00
2018-02-16T11:26:43.718Z,11.00
2018-02-16T11:28:20.133Z,9.25
2018-02-16T11:29:57.355Z,11.00
2018-02-16T11:31:34.818Z,10.75
2018-02-16T11:33:11.709Z,8.00
2018-02-16T11:34:48.044Z,9.50
2018-02-16T11:36:24.803Z,6.25
2018-02-16T11:38:01.488Z,7.00
2018-02-16T11:39:38.586Z,6.00
2018-02-16T11:41:15.384Z,6.50
2018-02-16T11:42:51.894Z,9.00
2018-02-16T11:44:28.399Z,6.75
2018-02-16T11:46:08.958Z,7.00
2018-02-16T11:47:45.958Z,9.00
2018-02-16T11:49:23.825Z,5.75
2018-02-16T11:51:01.237Z,6.75
2018-02-16T11:52:39.930Z,12.50
2018-02-16T11:54:16.305Z,6.00
2018-02-16T11:55:53.446Z,7.25
2018-02-16T11:57:30.059Z,7.75
2018-02-16T11:59:07.285Z,7.00
2018-02-16T12:00:43.941Z,7.00
2018-02-16T12:02:20.479Z,4.50
2018-02-16T12:03:57.109Z,6.00
2018-02-16T12:05:34.651Z,6.00
2018-02-16T12:07:11.041Z,5.00
2018-02-16T12:08:47.426Z,5.00
2018-02-16T12:10:23.785Z,5.75
2018-02-16T12:12:00.667Z,7.50
2018-02-16T12:13:37.830Z,7.00
2018-02-16T12:15:16.172Z,5.25
2018-02-16T12:16:54.244Z,6.50
2018-02-16T12:18:31.260Z,5.75
2018-02-16T12:20:08.468Z,6.25
2018-02-16T12:21:44.929Z,7.00
2018-02-16T12:23:21.347Z,6.75
2018-02-16T12:24:58.338Z,6.75
2018-02-16T12:26:36.131Z,6.00
2018-02-16T12:28:13.565Z,6.50
2018-02-16T12:29:50.532Z,5.75
2018-02-16T12:31:27.844Z,8.00
2018-02-16T12:33:04.372Z,6.50
2018-02-16T12:34:41.142Z,6.00
2018-02-16T12:36:17.734Z,8.00
2018-02-16T12:37:54.823Z,5.50
2018-02-16T12:39:32.450Z,6.75
2018-02-16T12:41:09.228Z,9.25
2018-02-16T12:42:45.782Z,7.75
2018-02-16T12:44:22.724Z,7.75
2018-02-16T12:45:59.697Z,9.00
2018-02-16T12:47:36.197Z,7.75
2018-02-16T12:49:13.589Z,7.25
2018-02-16T12:50:50.576Z,9.00
2018-02-16T12:52:27.803Z,7.50
2018-02-16T12:54:04.257Z,8.50
2018-02-16T12:55:40.817Z,9.00
2018-02-16T12:57:17.495Z,6.50
2018-02-16T12:58:54.021Z,5.75
2018-02-16T13:00:30.774Z,6.25
2018-02-16T13:02:07.282Z,10.00
2018-02-16T13:03:44.130Z,5.75
2018-02-16T13:05:21.803Z,7.00
2018-02-16T13:06:58.523Z,5.75
2018-02-16T13:08:35.176Z,5.75
2018-02-16T13:10:12.830Z,4.00
2018-02-16T13:11:49.429Z,6.75
2018-02-16T13:13:30.804Z,6.75
2018-02-16T13:15:07.856Z,5.25
2018-02-16T13:16:45.107Z,6.00
2018-02-16T13:20:02.987Z,7.75
2018-02-16T13:23:21.303Z,6.00
2018-02-16T13:24:57.873Z,10.75
2018-02-16T13:26:34.602Z,8.50
2018-02-16T13:28:11.608Z,9.75
2018-02-16T13:29:48.468Z,7.00
2018-02-16T13:31:26.384Z,9.00
2018-02-16T13:33:06.833Z,8.25
2018-02-16T13:34:47.134Z,5.25
2018-02-16T13:36:24.746Z,7.25
2018-02-16T13:38:02.665Z,6.00
2018-02-16T13:39:41.918Z,4.75
2018-02-16T13:41:19.827Z,5.00
2018-02-16T13:42:57.776Z,4.50
2018-02-16T13:44:38.441Z,6.25
2018-02-16T13:46:17.973Z,4.50
2018-02-16T13:47:55.383Z,7.25
2018-02-16T13:49:32.685Z,6.00
2018-02-16T13:51:09.760Z,3.00
2018-02-16T13:52:47.488Z,3.00
2018-02-16T13:54:25.272Z,5.75
2018-02-16T13:56:03.621Z,4.00
2018-02-16T13:57:41.010Z,4.50
2018-02-16T13:59:18.537Z,5.75
2018-02-16T14:00:56.783Z,5.25
2018-02-16T14:02:34.436Z,4.50
2018-02-16T14:04:11.231Z,3.50
2018-02-16T14:05:47.793Z,6.50
2018-02-16T14:07:25.093Z,2.25
2018-02-16T14:09:01.720Z,4.50
2018-02-16T14:10:38.348Z,3.50
2018-02-16T14:12:14.750Z,9.50
2018-02-16T14:13:51.340Z,6.00
2018-02-16T14:15:30.305Z,6.00
2018-02-16T14:17:06.881Z,4.50
2018-02-16T14:18:43.913Z,6.00
2018-02-16T14:20:21.110Z,4.50
2018-02-16T14:21:57.682Z,6.00
2018-02-16T14:23:34.181Z,6.00
2018-02-16T14:25:12.581Z,6.00
2018-02-16T14:26:50.073Z,5.00
2018-02-16T14:28:27.104Z,5.75
2018-02-16T14:30:04.112Z,5.00
2018-02-16T14:31:41.507Z,7.00
2018-02-16T14:33:17.896Z,7.75
2018-02-16T14:34:54.391Z,5.75
2018-02-16T14:36:31.452Z,5.00
2018-02-16T14:38:09.159Z,5.75
2018-02-16T14:39:46.516Z,5.00
2018-02-16T14:41:22.949Z,5.25
2018-02-16T14:42:59.642Z,6.00
2018-02-16T14:44:37.345Z,6.00
2018-02-16T14:46:14.064Z,5.00
2018-02-16T14:47:50.600Z,5.50
2018-02-16T14:49:28.113Z,5.00
2018-02-16T14:51:05.256Z,5.00
2018-02-16T14:52:42.070Z,6.00
2018-02-16T14:54:19.950Z,6.25
2018-02-16T14:55:57.497Z,6.00
2018-02-16T14:57:35.849Z,5.75
2018-02-16T14:59:12.507Z,7.00
2018-02-16T15:00:49.107Z,6.00
2018-02-16T15:02:25.668Z,7.25
2018-02-16T15:04:03.241Z,6.75
2018-02-16T15:05:40.565Z,6.75
2018-02-16T15:07:17.949Z,7.75
2018-02-16T15:08:54.466Z,8.75
2018-02-16T15:10:32.022Z,8.00
2018-02-16T15:12:08.704Z,10.00
2018-02-16T15:13:46.171Z,9.75
2018-02-16T15:15:23.933Z,8.50
2018-02-16T15:17:01.134Z,6.50
2018-02-16T15:18:37.790Z,6.00
2018-02-16T15:20:16.392Z,15.00
2018-02-16T15:21:54.112Z,7.50
2018-02-16T15:23:32.519Z,6.00
2018-02-16T15:25:09.575Z,6.00
2018-02-16T15:26:46.477Z,6.00
2018-02-16T15:28:23.341Z,5.00
2018-02-16T15:30:01.208Z,5.25
2018-02-16T15:31:38.403Z,4.00
2018-02-16T15:33:15.129Z,5.75
2018-02-16T15:34:52.098Z,4.50
2018-02-16T15:36:34.075Z,5.50
2018-02-16T15:38:11.506Z,3.00
2018-02-16T15:39:49.353Z,6.50
2018-02-16T15:41:28.635Z,5.50
2018-02-16T15:43:05.496Z,5.00
2018-02-16T15:44:42.309Z,6.00
2018-02-16T15:46:38.548Z,5.00
2018-02-16T15:48:16.913Z,5.00
2018-02-16T15:49:53.992Z,5.75
2018-02-16T15:51:31.562Z,3.50
2018-02-16T15:53:08.441Z,4.00
2018-02-16T15:54:44.895Z,3.00
2018-02-16T15:56:23.682Z,4.00
2018-02-16T15:58:00.915Z,7.25
2018-02-16T15:59:37.849Z,6.00
2018-02-16T16:01:16.048Z,5.25
2018-02-16T16:02:53.301Z,5.50
2018-02-16T16:04:31.126Z,6.00
2018-02-16T16:06:08.431Z,6.00
2018-02-16T16:07:45.085Z,6.00
2018-02-16T16:09:22.926Z,5.25
2018-02-16T16:10:59.460Z,5.00
2018-02-16T16:12:42.191Z,5.50
2018-02-16T16:14:19.354Z,4.75
2018-02-16T16:16:03.573Z,6.00
2018-02-16T16:17:39.985Z,5.75
2018-02-16T16:19:17.757Z,6.00
2018-02-16T16:20:54.938Z,6.00
2018-02-16T16:22:31.653Z,3.75
2018-02-16T16:24:08.044Z,5.50
2018-02-16T16:25:45.339Z,7.00
2018-02-16T16:27:21.967Z,6.00
2018-02-16T16:28:59.609Z,7.25
2018-02-16T16:30:36.286Z,4.00
2018-02-16T16:32:14.347Z,6.00
2018-02-16T16:33:51.885Z,6.00
2018-02-16T16:35:28.980Z,6.00
2018-02-16T16:37:05.511Z,4.50
2018-02-16T16:38:41.833Z,4.00
2018-02-16T16:40:18.315Z,3.75
2018-02-16T16:41:55.215Z,5.00
2018-02-16T16:43:31.646Z,4.00
2018-02-16T16:45:08.141Z,4.00
2018-02-16T16:46:45.141Z,14.75
2018-02-16T16:48:22.166Z,4.75
2018-02-16T16:49:58.521Z,7.25
2018-02-16T16:51:34.850Z,4.75
2018-02-16T16:53:11.453Z,6.50
2018-02-16T16:54:48.697Z,4.25
2018-02-16T16:56:25.886Z,8.00
2018-02-16T16:58:03.229Z,6.00
2018-02-16T16:59:39.687Z,6.00
2018-02-16T17:01:18.688Z,3.00
2018-02-16T17:02:55.285Z,6.75
2018-02-16T17:04:35.316Z,6.25
2018-02-16T17:06:11.970Z,6.25
2018-02-16T17:07:53.105Z,6.75
2018-02-16T17:09:32.037Z,9.75
2018-02-16T17:11:10.437Z,8.00
2018-02-16T17:12:47.647Z,6.00
2018-02-16T17:14:24.482Z,9.25
2018-02-16T17:16:01.689Z,10.25
2018-02-16T17:19:27.677Z,13.25
2018-02-16T17:21:04.636Z,14.00
2018-02-16T17:22:43.187Z,13.25
2018-02-16T17:24:20.627Z,14.00
2018-02-16T17:25:57.344Z,13.50
2018-02-16T17:27:34.128Z,14.75
2018-02-16T17:29:11.278Z,18.25
2018-02-16T17:30:47.926Z,14.00
2018-02-16T17:32:27.098Z,16.50
2018-02-16T17:34:04.304Z,23.25
2018-02-16T17:35:40.661Z,23.50
2018-02-16T17:37:22.893Z,20.00
2018-02-16T17:39:01.294Z,14.25
2018-02-16T17:40:38.311Z,18.25
2018-02-16T17:42:14.868Z,19.00
2018-02-16T17:43:51.394Z,16.25
2018-02-16T17:45:29.209Z,18.75
2018-02-16T17:47:06.021Z,16.00
2018-02-16T17:48:43.485Z,17.75
2018-02-16T17:50:20.425Z,15.75
2018-02-16T17:51:56.856Z,20.75
2018-02-16T17:53:33.691Z,16.50
2018-02-16T17:55:10.104Z,14.75
2018-02-16T17:56:46.553Z,15.50
2018-02-16T17:58:22.974Z,16.75
2018-02-16T17:59:59.817Z,18.75
2018-02-16T18:01:37.628Z,15.50
2018-02-16T18:03:18.927Z,12.00
2018-02-16T18:04:55.470Z,16.00
2018-02-16T18:06:32.380Z,16.25
2018-02-16T18:08:09.787Z,16.00
2018-02-16T18:09:47.386Z,16.25
2018-02-16T18:11:24.065Z,19.00
2018-02-16T18:13:01.016Z,15.25
2018-02-16T18:14:37.552Z,12.75
2018-02-16T18:16:14.381Z,16.25
2018-02-16T18:17:50.898Z,15.75
2018-02-16T18:19:27.624Z,17.00
2018-02-16T18:21:04.395Z,15.75
2018-02-16T18:22:41.098Z,17.25
2018-02-16T18:24:18.285Z,19.75
2018-02-16T18:25:55.876Z,21.00
2018-02-16T18:27:33.138Z,16.00
2018-02-16T18:29:12.110Z,17.50
2018-02-16T18:30:48.729Z,13.50
2018-02-16T18:32:32.748Z,12.50
2018-02-16T18:34:09.163Z,14.50
2018-02-16T18:35:46.576Z,12.50
2018-02-16T18:37:23.268Z,11.75
2018-02-16T18:39:00.087Z,13.75
2018-02-16T18:40:37.912Z,15.25
2018-02-16T18:42:15.217Z,17.50
2018-02-16T18:43:51.672Z,21.00
2018-02-16T18:45:30.358Z,19.00
2018-02-16T18:47:07.184Z,18.00
2018-02-16T18:48:44.273Z,17.25
2018-02-16T18:50:20.865Z,17.25
2018-02-16T18:51:57.778Z,22.00
2018-02-16T18:53:34.498Z,19.25
2018-02-16T18:56:46.401Z,19.50
2018-02-16T18:58:23.476Z,18.50
2018-02-16T19:00:00.387Z,19.75
2018-02-16T19:01:39.132Z,26.00
2018-02-16T19:03:18.497Z,21.75
2018-02-16T19:04:56.824Z,19.00
2018-02-16T19:06:33.241Z,22.75
2018-02-16T19:08:10.429Z,22.00
2018-02-16T19:09:47.739Z,21.00
2018-02-16T19:11:24.834Z,20.75
2018-02-16T19:13:01.395Z,23.75
2018-02-16T19:14:38.776Z,23.25
2018-02-16T19:16:15.556Z,24.75
2018-02-16T19:17:52.451Z,20.75
2018-02-16T19:19:29.194Z,19.50
2018-02-16T19:21:05.751Z,16.50
2018-02-16T19:22:42.295Z,20.00
2018-02-16T19:24:19.059Z,19.25
2018-02-16T19:25:55.559Z,19.00
2018-02-16T19:27:32.214Z,23.25
2018-02-16T19:29:09.545Z,19.25
2018-02-16T19:30:47.299Z,19.00
2018-02-16T19:32:23.710Z,21.00
2018-02-16T19:34:00.287Z,20.75
2018-02-16T19:46:54.698Z,19.25
2018-02-16T19:48:31.128Z,17.00
2018-02-16T19:50:07.640Z,19.75
2018-02-16T19:51:45.086Z,17.00
2018-02-16T19:53:21.572Z,18.75
2018-02-16T19:54:58.796Z,15.00
2018-02-16T19:56:35.966Z,15.75
2018-02-16T19:58:13.682Z,18.25
2018-02-16T19:59:50.071Z,16.00
2018-02-16T20:01:27.133Z,16.75
2018-02-16T20:03:04.749Z,17.75
2018-02-16T20:04:41.547Z,15.50
2018-02-16T20:06:18.641Z,19.00
2018-02-16T20:07:55.354Z,19.75
2018-02-16T20:09:32.593Z,17.75
2018-02-16T20:11:09.460Z,20.75
2018-02-16T20:12:45.970Z,18.75
2018-02-16T20:14:22.421Z,19.00
2018-02-16T20:15:59.913Z,19.00
2018-02-16T20:17:36.949Z,12.75
2018-02-16T20:19:13.401Z,18.00
2018-02-16T20:20:49.911Z,15.25
2018-02-16T20:22:27.246Z,19.00
2018-02-16T20:24:04.960Z,14.00
2018-02-16T20:25:43.521Z,14.50
2018-02-16T20:27:19.931Z,15.00
2018-02-16T20:28:56.387Z,16.50
2018-02-16T20:30:33.388Z,15.00
2018-02-16T20:32:09.795Z,16.75
2018-02-16T20:33:47.073Z,14.50
2018-02-16T20:35:25.619Z,13.75
2018-02-16T20:37:02.785Z,15.00
2018-02-16T20:38:42.334Z,11.75
2018-02-16T20:40:18.779Z,16.75
2018-02-16T20:41:55.248Z,12.00
2018-02-16T20:43:32.955Z,15.00
2018-02-16T20:45:09.287Z,16.50
2018-02-16T20:46:47.081Z,14.50
2018-02-16T20:48:23.761Z,13.25
2018-02-16T20:50:02.104Z,13.25
2018-02-16T20:51:38.502Z,13.00
2018-02-16T20:53:15.049Z,14.50
2018-02-16T20:54:51.452Z,13.00
2018-02-16T20:56:28.651Z,13.25
2018-02-16T20:58:05.270Z,13.75
2018-02-16T20:59:42.594Z,13.00
2018-02-16T21:01:20.552Z,16.25
2018-02-16T21:02:59.015Z,16.50
2018-02-16T21:04:35.426Z,13.25
2018-02-16T21:06:11.869Z,15.75
2018-02-16T21:07:48.310Z,13.50
2018-02-16T21:09:26.418Z,15.75
2018-02-16T21:11:06.836Z,15.75
2018-02-16T21:14:22.104Z,14.00
2018-02-16T21:15:59.949Z,18.00
2018-02-16T21:17:38.271Z,18.00
2018-02-16T21:19:17.641Z,14.50
2018-02-16T21:20:54.285Z,14.75
2018-02-16T21:22:33.754Z,14.25
2018-02-16T21:24:10.192Z,14.00
2018-02-16T21:25:46.619Z,14.25